createdAt,value
2016-01-22T00:00:46.359Z,84
2016-01-22T00:01:47.216Z,84
2016-01-22T00:02:48.997Z,84
2016-01-22T00:05:51.398Z,84
2016-01-22T00:06:52.193Z,84
2016-01-22T00:07:53.029Z,84
2016-01-22T00:08:53.807Z,84
2016-01-22T00:09:54.648Z,84
2016-01-22T00:11:56.260Z,84
2016-01-22T00:12:58.047Z,84
2016-01-22T00:13:58.889Z,84
2016-01-22T00:14:59.659Z,84
2016-01-22T00:16:00.455Z,84
2016-01-22T00:17:01.249Z,84
2016-01-22T00:18:02.051Z,84
2016-01-22T00:19:02.874Z,84
2016-01-22T00:20:03.658Z,84
2016-01-22T00:22:05.310Z,84
2016-01-22T00:23:07.089Z,84
2016-01-22T00:24:07.885Z,84
2016-01-22T00:25:08.708Z,84
2016-01-22T00:27:10.299Z,84
2016-01-22T00:28:11.102Z,84
2016-01-22T00:30:12.705Z,84
2016-01-22T00:31:13.501Z,84
2016-01-22T00:36:18.561Z,84
2016-01-22T00:37:19.340Z,84
2016-01-22T00:39:20.716Z,84
2016-01-22T00:40:21.526Z,84
2016-01-22T00:41:22.315Z,84
2016-01-22T00:42:23.169Z,84
2016-01-22T00:43:24.932Z,84
2016-01-22T00:44:25.722Z,84
2016-01-22T00:45:26.543Z,84
2016-01-22T00:46:27.338Z,83
2016-01-22T00:47:27.877Z,84
2016-01-22T00:49:29.233Z,84
2016-01-22T00:50:30.021Z,83
2016-01-22T00:51:30.561Z,84
2016-01-22T00:53:33.206Z,84
2016-01-22T00:55:34.806Z,84
2016-01-22T00:56:35.609Z,84
2016-01-22T00:57:36.402Z,84
2016-01-22T00:58:37.219Z,84
2016-01-22T00:59:38.015Z,84
2016-01-22T01:00:38.822Z,84
2016-01-22T01:01:39.653Z,84
2016-01-22T01:02:40.483Z,84
2016-01-22T01:03:42.253Z,84
2016-01-22T01:04:43.062Z,84
2016-01-22T01:05:43.860Z,84
2016-01-22T01:06:44.676Z,84
2016-01-22T01:07:45.516Z,84
2016-01-22T01:08:46.278Z,84
2016-01-22T01:09:47.080Z,84
2016-01-22T01:10:47.901Z,84
2016-01-22T01:11:48.689Z,84
2016-01-22T01:12:49.558Z,84
2016-01-22T01:13:51.327Z,84
2016-01-22T01:14:52.138Z,84
2016-01-22T01:15:52.934Z,84
2016-01-22T01:16:53.757Z,84
2016-01-22T01:17:54.539Z,84
2016-01-22T01:18:55.357Z,84
2016-01-22T01:19:56.145Z,84
2016-01-22T01:20:56.954Z,84
2016-01-22T01:21:57.755Z,84
2016-01-22T01:22:58.612Z,84
2016-01-22T01:24:00.404Z,84
2016-01-22T01:25:01.196Z,84
2016-01-22T01:26:02.012Z,84
2016-01-22T01:27:02.842Z,84
2016-01-22T01:28:03.615Z,84
2016-01-22T01:29:04.416Z,84
2016-01-22T01:30:05.221Z,84
2016-01-22T01:31:06.026Z,84
2016-01-22T01:32:06.818Z,84
2016-01-22T01:33:07.696Z,84
2016-01-22T01:34:09.458Z,84
2016-01-22T01:35:10.272Z,84
2016-01-22T01:36:11.114Z,84
2016-01-22T01:37:11.885Z,84
2016-01-22T01:38:12.689Z,84
2016-01-22T01:39:13.482Z,84
2016-01-22T01:40:14.285Z,84
2016-01-22T01:41:15.107Z,84
2016-01-22T01:42:15.898Z,84
2016-01-22T01:43:16.755Z,84
2016-01-22T01:44:18.535Z,84
2016-01-22T01:45:19.337Z,84
2016-01-22T01:46:20.142Z,84
2016-01-22T01:47:20.946Z,84
2016-01-22T01:48:21.739Z,84
2016-01-22T01:49:22.528Z,84
2016-01-22T01:50:23.368Z,84
2016-01-22T01:51:24.153Z,84
2016-01-22T01:52:24.963Z,84
2016-01-22T01:53:25.820Z,84
2016-01-22T01:54:27.646Z,84
2016-01-22T01:55:28.415Z,84
2016-01-22T01:56:29.223Z,84
2016-01-22T01:57:30.014Z,84
2016-01-22T01:58:30.837Z,84
2016-01-22T01:59:31.643Z,84
2016-01-22T02:00:32.462Z,84
2016-01-22T02:01:33.238Z,84
2016-01-22T02:02:34.056Z,84
2016-01-22T02:03:34.903Z,84
2016-01-22T02:04:36.689Z,84
2016-01-22T02:05:37.499Z,84
2016-01-22T02:06:38.283Z,84
2016-01-22T02:07:39.093Z,84
2016-01-22T02:08:39.900Z,84
2016-01-22T02:09:40.706Z,84
2016-01-22T02:10:41.524Z,84
2016-01-22T02:11:42.349Z,84
2016-01-22T02:12:43.122Z,84
2016-01-22T02:13:43.989Z,84
2016-01-22T02:14:45.773Z,84
2016-01-22T02:15:46.594Z,84
2016-01-22T02:16:47.379Z,84
2016-01-22T02:17:48.209Z,84
2016-01-22T02:18:48.985Z,84
2016-01-22T02:19:49.793Z,84
2016-01-22T02:20:50.610Z,84
2016-01-22T02:21:51.415Z,84
2016-01-22T02:22:52.238Z,84
2016-01-22T02:23:53.108Z,83
2016-01-22T02:24:54.848Z,83
2016-01-22T02:25:55.668Z,83
2016-01-22T02:26:56.470Z,83
2016-01-22T02:27:57.273Z,83
2016-01-22T02:28:58.075Z,83
2016-01-22T02:29:58.886Z,83
2016-01-22T02:30:59.686Z,83
2016-01-22T02:32:00.498Z,83
2016-01-22T02:33:01.321Z,83
2016-01-22T02:34:02.159Z,83
2016-01-22T02:35:03.944Z,83
2016-01-22T02:36:04.751Z,83
2016-01-22T02:37:05.558Z,83
2016-01-22T02:38:06.363Z,83
2016-01-22T02:39:07.163Z,83
2016-01-22T02:40:07.983Z,83
2016-01-22T02:41:08.784Z,83
2016-01-22T02:42:09.609Z,83
2016-01-22T02:43:10.403Z,83
2016-01-22T02:44:11.268Z,83
2016-01-22T02:45:13.030Z,83
2016-01-22T02:46:13.836Z,83
2016-01-22T02:47:14.642Z,83
2016-01-22T02:48:15.491Z,83
2016-01-22T02:49:16.191Z,83
2016-01-22T02:50:17.087Z,83
2016-01-22T02:51:17.892Z,83
2016-01-22T02:52:18.678Z,83
2016-01-22T02:53:19.512Z,83
2016-01-22T02:54:20.364Z,83
2016-01-22T02:55:22.137Z,83
2016-01-22T02:56:22.937Z,83
2016-01-22T02:57:23.740Z,83
2016-01-22T02:58:24.548Z,83
2016-01-22T02:59:25.367Z,83
2016-01-22T03:00:26.169Z,83
2016-01-22T03:01:26.974Z,83
2016-01-22T03:02:27.764Z,84
2016-01-22T03:03:28.627Z,84
2016-01-22T03:04:29.467Z,84
2016-01-22T03:05:31.205Z,84
2016-01-22T03:06:32.026Z,84
2016-01-22T03:07:32.830Z,84
2016-01-22T03:08:33.638Z,84
2016-01-22T03:09:34.475Z,84
2016-01-22T03:10:35.247Z,84
2016-01-22T03:11:36.066Z,84
2016-01-22T03:12:36.868Z,84
2016-01-22T03:13:37.677Z,83
2016-01-22T03:14:38.560Z,83
2016-01-22T03:15:40.298Z,83
2016-01-22T03:16:41.104Z,83
2016-01-22T03:17:41.908Z,83
2016-01-22T03:18:42.737Z,83
2016-01-22T03:19:43.523Z,83
2016-01-22T03:20:44.331Z,83
2016-01-22T03:21:45.166Z,83
2016-01-22T03:22:45.937Z,83
2016-01-22T03:23:46.746Z,83
2016-01-22T03:24:47.612Z,83
2016-01-22T03:25:49.393Z,83
2016-01-22T03:26:50.194Z,84
2016-01-22T03:27:51.012Z,84
2016-01-22T03:28:52.068Z,84
2016-01-22T03:29:52.868Z,84
2016-01-22T03:30:53.672Z,84
2016-01-22T03:31:54.488Z,84
2016-01-22T03:32:55.295Z,84
2016-01-22T03:33:56.098Z,84
2016-01-22T03:34:56.978Z,84
2016-01-22T03:35:58.738Z,84
2016-01-22T03:36:59.554Z,84
2016-01-22T03:38:00.343Z,84
2016-01-22T03:39:01.176Z,84
2016-01-22T03:40:02.158Z,84
2016-01-22T03:41:02.760Z,84
2016-01-22T03:42:03.592Z,84
2016-01-22T03:43:04.652Z,84
2016-01-22T03:44:05.439Z,84
2016-01-22T03:45:06.557Z,84
2016-01-22T03:46:08.322Z,84
2016-01-22T03:47:09.376Z,84
2016-01-22T03:48:10.452Z,84
2016-01-22T03:49:11.476Z,84
2016-01-22T03:50:12.543Z,84
2016-01-22T03:51:13.589Z,84
2016-01-22T03:52:14.655Z,84
2016-01-22T03:53:15.702Z,84
2016-01-22T03:54:16.532Z,84
2016-01-22T03:55:17.629Z,84
2016-01-22T03:56:19.417Z,84
2016-01-22T03:57:20.232Z,84
2016-01-22T03:58:21.004Z,84
2016-01-22T03:59:21.820Z,84
2016-01-22T04:00:22.625Z,84
2016-01-22T04:01:23.441Z,84
2016-01-22T04:02:24.256Z,84
2016-01-22T04:03:25.061Z,84
2016-01-22T04:04:25.846Z,84
2016-01-22T04:05:26.717Z,84
2016-01-22T04:06:28.486Z,84
2016-01-22T04:07:29.293Z,84
2016-01-22T04:08:30.111Z,84
2016-01-22T04:09:30.896Z,84
2016-01-22T04:10:31.701Z,84
2016-01-22T04:11:32.518Z,84
2016-01-22T04:12:33.334Z,84
2016-01-22T04:13:34.123Z,84
2016-01-22T04:14:34.941Z,84
2016-01-22T04:15:35.791Z,84
2016-01-22T04:16:37.562Z,84
2016-01-22T04:17:38.382Z,84
2016-01-22T04:18:39.184Z,84
2016-01-22T04:19:39.988Z,84
2016-01-22T04:20:40.792Z,84
2016-01-22T04:21:41.612Z,84
2016-01-22T04:22:42.444Z,84
2016-01-22T04:23:43.201Z,84
2016-01-22T04:24:44.008Z,84
2016-01-22T04:25:44.870Z,84
2016-01-22T04:26:46.648Z,84
2016-01-22T04:27:47.496Z,84
2016-01-22T04:28:48.272Z,84
2016-01-22T04:29:49.091Z,84
2016-01-22T04:30:49.877Z,84
2016-01-22T04:31:50.678Z,84
2016-01-22T04:32:51.497Z,84
2016-01-22T04:33:52.300Z,84
2016-01-22T04:34:53.102Z,84
2016-01-22T04:35:54.001Z,84
2016-01-22T04:36:55.757Z,84
2016-01-22T04:37:56.545Z,84
2016-01-22T04:38:57.347Z,84
2016-01-22T04:39:58.148Z,84
2016-01-22T04:40:58.954Z,84
2016-01-22T04:41:59.757Z,84
2016-01-22T04:43:00.558Z,84
2016-01-22T04:44:01.363Z,84
2016-01-22T04:45:02.210Z,83
2016-01-22T04:46:03.046Z,83
2016-01-22T04:47:04.805Z,83
2016-01-22T04:48:05.612Z,83
2016-01-22T04:49:06.444Z,83
2016-01-22T04:50:07.250Z,83
2016-01-22T04:51:08.038Z,83
2016-01-22T04:52:08.839Z,83
2016-01-22T04:53:09.647Z,83
2016-01-22T04:54:10.465Z,83
2016-01-22T04:55:11.259Z,83
2016-01-22T04:56:12.124Z,83
2016-01-22T04:57:13.894Z,83
2016-01-22T04:58:14.730Z,83
2016-01-22T04:59:15.514Z,83
2016-01-22T05:00:16.330Z,83
2016-01-22T05:01:17.122Z,83
2016-01-22T05:02:17.922Z,83
2016-01-22T05:03:18.743Z,83
2016-01-22T05:04:19.545Z,83
2016-01-22T05:05:20.396Z,83
2016-01-22T05:06:21.213Z,83
2016-01-22T05:07:23.003Z,83
2016-01-22T05:08:23.819Z,83
2016-01-22T05:09:24.637Z,83
2016-01-22T05:10:25.414Z,83
2016-01-22T05:11:26.215Z,83
2016-01-22T05:12:27.063Z,83
2016-01-22T05:13:27.836Z,83
2016-01-22T05:14:28.638Z,83
2016-01-22T05:15:29.455Z,83
2016-01-22T05:16:30.307Z,83
2016-01-22T05:17:32.093Z,83
2016-01-22T05:18:32.898Z,83
2016-01-22T05:19:33.716Z,83
2016-01-22T05:20:34.517Z,83
2016-01-22T05:21:35.321Z,83
2016-01-22T05:22:36.137Z,83
2016-01-22T05:23:36.924Z,83
2016-01-22T05:24:37.741Z,83
2016-01-22T05:25:38.558Z,83
2016-01-22T05:26:39.404Z,83
2016-01-22T05:27:41.190Z,83
2016-01-22T05:28:41.992Z,83
2016-01-22T05:29:42.800Z,83
2016-01-22T05:30:43.647Z,84
2016-01-22T05:31:44.682Z,84
2016-01-22T05:32:45.767Z,84
2016-01-22T05:33:46.801Z,84
2016-01-22T05:34:47.868Z,84
2016-01-22T05:35:49.285Z,83
2016-01-22T05:36:49.804Z,83
2016-01-22T05:37:51.576Z,84
2016-01-22T05:38:52.629Z,83
2016-01-22T05:39:53.430Z,83
2016-01-22T05:40:54.249Z,83
2016-01-22T05:41:55.052Z,83
2016-01-22T05:42:55.872Z,83
2016-01-22T05:43:56.679Z,84
2016-01-22T05:44:57.730Z,83
2016-01-22T05:45:58.536Z,83
2016-01-22T05:46:59.401Z,83
2016-01-22T05:48:01.188Z,83
2016-01-22T05:49:02.012Z,83
2016-01-22T05:50:02.797Z,83
2016-01-22T05:51:03.597Z,83
2016-01-22T05:52:04.418Z,83
2016-01-22T05:53:05.233Z,83
2016-01-22T05:54:06.021Z,83
2016-01-22T05:55:06.827Z,83
2016-01-22T05:56:07.628Z,83
2016-01-22T05:57:08.493Z,83
2016-01-22T05:58:10.279Z,83
2016-01-22T05:59:11.082Z,83
2016-01-22T06:00:11.886Z,83
2016-01-22T06:01:12.702Z,83
2016-01-22T06:02:13.518Z,83
2016-01-22T06:03:14.326Z,83
2016-01-22T06:04:15.130Z,83
2016-01-22T06:05:15.961Z,83
2016-01-22T06:06:16.735Z,83
2016-01-22T06:07:17.598Z,83
2016-01-22T06:08:19.367Z,83
2016-01-22T06:09:20.190Z,83
2016-01-22T06:10:20.991Z,83
2016-01-22T06:11:21.794Z,83
2016-01-22T06:12:22.609Z,83
2016-01-22T06:13:23.412Z,83
2016-01-22T06:14:24.220Z,83
2016-01-22T06:15:25.020Z,83
2016-01-22T06:16:25.828Z,83
2016-01-22T06:17:26.708Z,83
2016-01-22T06:18:28.510Z,83
2016-01-22T06:19:29.294Z,83
2016-01-22T06:20:30.145Z,83
2016-01-22T06:21:31.056Z,83
2016-01-22T06:22:31.716Z,83
2016-01-22T06:23:32.539Z,83
2016-01-22T06:24:33.339Z,83
2016-01-22T06:25:34.160Z,83
2016-01-22T06:26:34.945Z,83
2016-01-22T06:27:35.810Z,83
2016-01-22T06:28:37.149Z,83
2016-01-22T06:29:38.402Z,83
2016-01-22T06:30:39.202Z,83
2016-01-22T06:31:40.007Z,83
2016-01-22T06:32:40.838Z,83
2016-01-22T06:33:41.627Z,83
2016-01-22T06:34:42.449Z,83
2016-01-22T06:35:43.281Z,83
2016-01-22T06:36:44.070Z,83
2016-01-22T06:37:44.919Z,83
2016-01-22T06:38:46.723Z,83
2016-01-22T06:39:47.498Z,83
2016-01-22T06:40:48.300Z,83
2016-01-22T06:41:49.116Z,83
2016-01-22T06:42:49.921Z,83
2016-01-22T06:43:50.738Z,83
2016-01-22T06:44:51.539Z,83
2016-01-22T06:45:52.340Z,83
2016-01-22T06:46:53.159Z,83
2016-01-22T06:47:54.022Z,83
2016-01-22T06:48:56.404Z,83
2016-01-22T06:49:56.598Z,83
2016-01-22T06:50:57.451Z,83
2016-01-22T06:51:58.220Z,83
2016-01-22T06:52:59.039Z,83
2016-01-22T06:53:59.843Z,83
2016-01-22T06:55:00.661Z,83
2016-01-22T06:56:01.461Z,83
2016-01-22T06:57:02.277Z,84
2016-01-22T06:58:03.395Z,84
2016-01-22T06:59:05.291Z,84
2016-01-22T07:00:06.251Z,84
2016-01-22T07:01:07.301Z,84
2016-01-22T07:02:08.369Z,84
2016-01-22T07:03:09.451Z,83
2016-01-22T07:04:10.239Z,83
2016-01-22T07:05:11.071Z,83
2016-01-22T07:06:11.891Z,83
2016-01-22T07:07:12.661Z,83
2016-01-22T07:08:13.542Z,83
2016-01-22T07:09:15.312Z,83
2016-01-22T07:10:16.086Z,83
2016-01-22T07:11:16.934Z,83
2016-01-22T07:12:17.753Z,83
2016-01-22T07:13:18.554Z,83
2016-01-22T07:14:19.373Z,83
2016-01-22T07:15:20.220Z,83
2016-01-22T07:16:20.988Z,83
2016-01-22T07:17:21.793Z,83
2016-01-22T07:18:22.657Z,83
2016-01-22T07:19:24.771Z,83
2016-01-22T07:20:25.244Z,83
2016-01-22T07:21:26.064Z,83
2016-01-22T07:22:26.868Z,83
2016-01-22T07:23:27.684Z,84
2016-01-22T07:24:28.752Z,84
2016-01-22T07:25:30.069Z,84
2016-01-22T07:26:31.138Z,83
2016-01-22T07:27:31.943Z,83
2016-01-22T07:28:32.810Z,83
2016-01-22T07:29:34.597Z,83
2016-01-22T07:30:35.398Z,83
2016-01-22T07:31:36.216Z,83
2016-01-22T07:32:37.022Z,83
2016-01-22T07:33:37.823Z,83
2016-01-22T07:34:38.640Z,83
2016-01-22T07:35:39.459Z,83
2016-01-22T07:36:40.260Z,83
2016-01-22T07:37:41.092Z,83
2016-01-22T07:38:41.940Z,83
2016-01-22T07:39:43.729Z,83
2016-01-22T07:40:44.530Z,83
2016-01-22T07:41:45.362Z,83
2016-01-22T07:42:46.164Z,83
2016-01-22T07:43:47.000Z,83
2016-01-22T07:44:47.768Z,83
2016-01-22T07:45:48.586Z,83
2016-01-22T07:46:49.402Z,83
2016-01-22T07:47:50.222Z,83
2016-01-22T07:48:51.085Z,83
2016-01-22T07:49:52.857Z,83
2016-01-22T07:50:53.673Z,83
2016-01-22T07:51:54.467Z,83
2016-01-22T07:52:55.300Z,83
2016-01-22T07:53:56.101Z,83
2016-01-22T07:54:56.902Z,83
2016-01-22T07:55:57.750Z,83
2016-01-22T07:56:58.519Z,83
2016-01-22T07:57:59.339Z,83
2016-01-22T07:59:00.205Z,83
2016-01-22T08:00:01.989Z,83
2016-01-22T08:01:02.791Z,83
2016-01-22T08:02:03.593Z,83
2016-01-22T08:03:04.412Z,83
2016-01-22T08:04:05.213Z,83
2016-01-22T08:05:06.060Z,83
2016-01-22T08:06:06.848Z,83
2016-01-22T08:07:07.666Z,83
2016-01-22T08:08:08.451Z,83
2016-01-22T08:09:09.348Z,83
2016-01-22T08:10:11.102Z,83
2016-01-22T08:11:11.907Z,83
2016-01-22T08:12:12.723Z,83
2016-01-22T08:13:13.555Z,83
2016-01-22T08:14:14.357Z,83
2016-01-22T08:15:15.158Z,83
2016-01-22T08:16:15.976Z,83
2016-01-22T08:17:16.794Z,83
2016-01-22T08:18:17.690Z,83
2016-01-22T08:19:18.459Z,83
2016-01-22T08:20:20.246Z,83
2016-01-22T08:21:21.049Z,83
2016-01-22T08:22:21.870Z,83
2016-01-22T08:23:22.687Z,83
2016-01-22T08:24:23.471Z,83
2016-01-22T08:25:24.272Z,83
2016-01-22T08:26:25.094Z,83
2016-01-22T08:27:25.911Z,83
2016-01-22T08:28:26.726Z,83
2016-01-22T08:29:27.575Z,83
2016-01-22T08:30:29.364Z,83
2016-01-22T08:31:30.149Z,84
2016-01-22T08:32:30.997Z,84
2016-01-22T08:33:31.768Z,84
2016-01-22T08:34:32.586Z,84
2016-01-22T08:35:33.388Z,84
2016-01-22T08:36:34.191Z,83
2016-01-22T08:37:34.745Z,83
2016-01-22T08:38:35.312Z,83
2016-01-22T08:39:35.927Z,83
2016-01-22T08:40:37.682Z,83
2016-01-22T08:41:37.969Z,83
2016-01-22T08:42:38.254Z,83
2016-01-22T08:43:38.804Z,83
2016-01-22T08:44:39.354Z,83
2016-01-22T08:45:39.659Z,83
2016-01-22T08:46:39.978Z,83
2016-01-22T08:47:40.241Z,83
2016-01-22T08:48:40.513Z,83
2016-01-22T08:49:40.876Z,82
2016-01-22T08:50:42.662Z,82
2016-01-22T08:51:42.685Z,82
2016-01-22T08:52:42.736Z,82
2016-01-22T08:53:42.753Z,83
2016-01-22T08:54:42.788Z,83
2016-01-22T08:55:42.827Z,82
2016-01-22T08:56:42.724Z,82
2016-01-22T08:57:42.651Z,82
2016-01-22T08:58:42.170Z,82
2016-01-22T08:59:41.998Z,82
2016-01-22T09:00:43.783Z,82
2016-01-22T09:01:43.554Z,82
2016-01-22T09:02:43.057Z,82
2016-01-22T09:03:42.671Z,82
2016-01-22T09:04:41.862Z,82
2016-01-22T09:05:41.148Z,82
2016-01-22T09:06:40.417Z,82
2016-01-22T09:07:39.657Z,81
2016-01-22T09:08:38.677Z,81
2016-01-22T09:09:37.462Z,81
2016-01-22T09:10:39.263Z,81
2016-01-22T09:11:38.001Z,81
2016-01-22T09:12:36.741Z,81
2016-01-22T09:13:35.495Z,81
2016-01-22T09:14:34.249Z,81
2016-01-22T09:15:32.988Z,81
2016-01-22T09:16:31.481Z,80
2016-01-22T09:17:33.832Z,80
2016-01-22T09:18:36.166Z,80
2016-01-22T09:19:38.568Z,80
2016-01-22T09:20:40.337Z,80
2016-01-22T09:21:42.687Z,80
2016-01-22T09:22:45.050Z,80
2016-01-22T09:23:47.383Z,80
2016-01-22T09:24:49.702Z,81
2016-01-22T09:25:48.206Z,80
2016-01-22T09:26:50.538Z,80
2016-01-22T09:27:52.903Z,80
2016-01-22T09:28:55.267Z,80
2016-01-22T09:29:57.616Z,79
2016-01-22T09:30:59.389Z,79
2016-01-22T09:32:00.959Z,79
2016-01-22T09:33:02.541Z,79
2016-01-22T09:34:04.294Z,79
2016-01-22T09:35:05.709Z,79
2016-01-22T09:36:06.996Z,79
2016-01-22T09:37:08.312Z,79
2016-01-22T09:38:09.629Z,79
2016-01-22T09:39:10.948Z,79
2016-01-22T09:40:12.311Z,79
2016-01-22T09:41:14.113Z,79
2016-01-22T09:42:15.154Z,78
2016-01-22T09:43:15.956Z,78
2016-01-22T09:44:16.756Z,78
2016-01-22T09:45:17.572Z,78
2016-01-22T09:46:18.356Z,78
2016-01-22T09:47:19.161Z,78
2016-01-22T09:48:19.698Z,78
2016-01-22T09:49:19.985Z,78
2016-01-22T09:50:20.319Z,77
2016-01-22T09:51:22.089Z,77
2016-01-22T09:52:21.891Z,77
2016-01-22T09:53:21.662Z,77
2016-01-22T09:54:21.152Z,77
2016-01-22T09:55:20.670Z,76
2016-01-22T09:56:19.927Z,76
2016-01-22T09:57:19.181Z,76
2016-01-22T09:58:18.453Z,76
2016-01-22T09:59:17.442Z,76
2016-01-22T10:00:16.524Z,76
2016-01-22T10:01:18.278Z,76
2016-01-22T10:02:17.313Z,75
2016-01-22T10:03:16.176Z,75
2016-01-22T10:04:14.779Z,75
2016-01-22T10:05:13.252Z,75
2016-01-22T10:06:11.755Z,75
2016-01-22T10:07:14.124Z,75
2016-01-22T10:08:16.454Z,74
2016-01-22T10:09:18.536Z,74
2016-01-22T10:10:20.406Z,74
2016-01-22T10:11:22.194Z,74
2016-01-22T10:12:24.010Z,73
2016-01-22T10:13:25.294Z,74
2016-01-22T10:14:26.862Z,74
2016-01-22T10:15:28.427Z,73
2016-01-22T10:16:29.734Z,74
2016-01-22T10:17:31.816Z,74
2016-01-22T10:18:33.382Z,74
2016-01-22T10:19:34.979Z,74
2016-01-22T10:20:36.827Z,74
2016-01-22T10:21:38.629Z,74
2016-01-22T10:22:40.451Z,74
2016-01-22T10:23:42.252Z,74
2016-01-22T10:24:44.086Z,74
2016-01-22T10:25:45.903Z,74
2016-01-22T10:26:47.702Z,74
2016-01-22T10:27:49.286Z,73
2016-01-22T10:28:50.578Z,73
2016-01-22T10:29:51.363Z,73
2016-01-22T10:30:52.210Z,72
2016-01-22T10:31:53.995Z,72
2016-01-22T10:32:54.264Z,71
2016-01-22T10:33:54.318Z,71
2016-01-22T10:34:54.321Z,71
2016-01-22T10:35:54.356Z,71
2016-01-22T10:36:54.144Z,71
2016-01-22T10:37:53.679Z,71
2016-01-22T10:38:53.153Z,71
2016-01-22T10:39:52.657Z,71
2016-01-22T10:40:52.224Z,71
2016-01-22T10:41:53.993Z,71
2016-01-22T10:42:53.778Z,71
2016-01-22T10:43:53.284Z,70
2016-01-22T10:44:52.543Z,70
2016-01-22T10:45:51.548Z,70
2016-01-22T10:46:50.567Z,70
2016-01-22T10:47:49.556Z,70
2016-01-22T10:48:48.795Z,70
2016-01-22T10:49:47.768Z,70
2016-01-22T10:50:46.586Z,69
2016-01-22T10:51:48.343Z,69
2016-01-22T10:52:50.663Z,69
2016-01-22T10:53:52.996Z,69
2016-01-22T10:54:55.324Z,68
2016-01-22T10:55:57.128Z,68
2016-01-22T10:56:58.710Z,67
2016-01-22T10:58:00.011Z,66
2016-01-22T10:59:00.938Z,66
2016-01-22T11:00:01.333Z,66
2016-01-22T11:01:02.198Z,66
2016-01-22T11:02:03.952Z,67
2016-01-22T11:03:05.002Z,67
2016-01-22T11:04:06.070Z,67
2016-01-22T11:05:07.194Z,67
2016-01-22T11:06:08.136Z,67
2016-01-22T11:07:09.210Z,67
2016-01-22T11:09:12.336Z,67
2016-01-22T11:10:13.101Z,67
2016-01-22T11:11:14.434Z,68
2016-01-22T11:12:16.218Z,68
2016-01-22T11:13:18.269Z,68
2016-01-22T11:14:20.365Z,68
2016-01-22T11:15:22.415Z,68
2016-01-22T11:16:24.235Z,68
2016-01-22T11:17:26.085Z,68
2016-01-22T11:18:28.126Z,68
2016-01-22T11:19:30.191Z,69
2016-01-22T11:20:32.694Z,69
2016-01-22T11:22:36.706Z,69
2016-01-22T11:23:39.024Z,69
2016-01-22T11:24:41.340Z,69
2016-01-22T11:25:39.844Z,69
2016-01-22T11:26:38.597Z,69
2016-01-22T11:27:37.323Z,69
2016-01-22T11:28:36.061Z,69
2016-01-22T11:29:34.831Z,70
2016-01-22T11:30:34.071Z,70
2016-01-22T11:31:33.449Z,70
2016-01-22T11:32:35.140Z,70
2016-01-22T11:33:34.410Z,70
2016-01-22T11:34:33.648Z,70
2016-01-22T11:35:32.901Z,70
2016-01-22T11:36:32.186Z,71
2016-01-22T11:37:31.958Z,70
2016-01-22T11:38:30.914Z,70
2016-01-22T11:39:30.182Z,70
2016-01-22T11:40:29.453Z,70
2016-01-22T11:41:28.740Z,71
2016-01-22T11:42:30.509Z,71
2016-01-22T11:43:30.013Z,71
2016-01-22T11:44:29.518Z,71
2016-01-22T11:45:29.055Z,71
2016-01-22T11:46:28.558Z,71
2016-01-22T11:47:28.077Z,71
2016-01-22T11:48:27.582Z,71
2016-01-22T11:49:27.071Z,71
2016-01-22T11:50:26.828Z,71
2016-01-22T11:51:26.660Z,71
2016-01-22T11:52:28.431Z,71
2016-01-22T11:53:27.936Z,71
2016-01-22T11:54:27.707Z,71
2016-01-22T11:55:27.462Z,71
2016-01-22T11:56:27.231Z,71
2016-01-22T11:57:27.017Z,71
2016-01-22T11:58:26.754Z,71
2016-01-22T11:59:26.821Z,72
2016-01-22T12:00:27.061Z,71
2016-01-22T12:01:27.097Z,71
2016-01-22T12:02:28.930Z,71
2016-01-22T12:03:28.686Z,71
2016-01-22T12:05:28.990Z,71
2016-01-22T12:06:29.041Z,71
2016-01-22T12:07:28.795Z,71
2016-01-22T12:08:28.579Z,71
2016-01-22T12:09:28.365Z,71
2016-01-22T12:10:28.103Z,71
2016-01-22T12:11:27.939Z,71
2016-01-22T12:12:29.694Z,71
2016-01-22T12:13:29.482Z,71
2016-01-22T12:14:29.266Z,71
2016-01-22T12:15:29.020Z,71
2016-01-22T12:16:28.775Z,71
2016-01-22T12:17:28.545Z,71
2016-01-22T12:18:28.316Z,71
2016-01-22T12:19:28.103Z,71
2016-01-22T12:20:27.881Z,71
2016-01-22T12:21:27.668Z,71
2016-01-22T12:22:29.862Z,71
2016-01-22T12:23:29.213Z,71
2016-01-22T12:24:29.253Z,71
2016-01-22T12:25:29.022Z,71
2016-01-22T12:26:28.776Z,71
2016-01-22T12:27:28.545Z,71
2016-01-22T12:28:28.330Z,71
2016-01-22T12:29:27.850Z,71
2016-01-22T12:30:27.606Z,71
2016-01-22T12:31:27.439Z,71
2016-01-22T12:32:29.208Z,71
2016-01-22T12:33:28.726Z,71
2016-01-22T12:34:28.230Z,71
2016-01-22T12:35:27.749Z,71
2016-01-22T12:36:27.307Z,71
2016-01-22T12:37:26.813Z,71
2016-01-22T12:38:26.301Z,71
2016-01-22T12:39:25.805Z,71
2016-01-22T12:40:25.325Z,71
2016-01-22T12:41:25.141Z,71
2016-01-22T12:42:26.912Z,71
2016-01-22T12:43:26.448Z,71
2016-01-22T12:44:25.969Z,70
2016-01-22T12:45:25.207Z,70
2016-01-22T12:46:24.462Z,70
2016-01-22T12:47:23.732Z,71
2016-01-22T12:48:23.237Z,71
2016-01-22T12:49:22.740Z,70
2016-01-22T12:50:22.013Z,70
2016-01-22T12:51:21.306Z,70
2016-01-22T12:52:23.063Z,71
2016-01-22T12:53:22.568Z,71
2016-01-22T12:54:22.057Z,71
2016-01-22T12:55:21.546Z,71
2016-01-22T12:56:21.305Z,71
2016-01-22T12:57:21.071Z,71
2016-01-22T12:58:20.839Z,71
2016-01-22T12:59:20.603Z,71
2016-01-22T13:00:20.387Z,71
2016-01-22T13:01:20.215Z,71
2016-01-22T13:02:21.998Z,71
2016-01-22T13:03:21.493Z,71
2016-01-22T13:04:20.981Z,70
2016-01-22T13:05:20.435Z,70
2016-01-22T13:06:19.551Z,70
2016-01-22T13:07:18.507Z,70
2016-01-22T13:08:17.493Z,70
2016-01-22T13:09:16.746Z,70
2016-01-22T13:10:16.046Z,70
2016-01-22T13:11:15.320Z,70
2016-01-22T13:12:17.089Z,70
2016-01-22T13:13:16.373Z,70
2016-01-22T13:14:15.599Z,70
2016-01-22T13:15:14.853Z,70
2016-01-22T13:16:14.122Z,70
2016-01-22T13:17:12.938Z,71
2016-01-22T13:18:12.881Z,71
2016-01-22T13:19:12.384Z,71
2016-01-22T13:20:12.433Z,72
2016-01-22T13:21:12.949Z,72
2016-01-22T13:23:15.318Z,72
2016-01-22T13:24:15.620Z,71
2016-01-22T13:25:15.311Z,71
2016-01-22T13:26:15.190Z,71
2016-01-22T13:27:14.693Z,71
2016-01-22T13:28:14.199Z,70
2016-01-22T13:29:13.468Z,71
2016-01-22T13:30:12.972Z,71
2016-01-22T13:31:12.522Z,71
2016-01-22T13:32:14.308Z,71
2016-01-22T13:33:13.813Z,71
2016-01-22T13:34:13.535Z,71
2016-01-22T13:35:13.305Z,71
2016-01-22T13:36:13.095Z,71
2016-01-22T13:37:12.866Z,71
2016-01-22T13:38:12.401Z,71
2016-01-22T13:39:12.140Z,71
2016-01-22T13:40:11.895Z,71
2016-01-22T13:41:11.741Z,71
2016-01-22T13:42:13.495Z,71
2016-01-22T13:43:13.281Z,71
2016-01-22T13:44:13.035Z,71
2016-01-22T13:45:12.805Z,71
2016-01-22T13:46:12.561Z,71
2016-01-22T13:47:12.580Z,71
2016-01-22T13:48:12.617Z,71
2016-01-22T13:49:12.635Z,71
2016-01-22T13:50:12.656Z,71
2016-01-22T13:51:12.746Z,71
2016-01-22T13:52:14.518Z,71
2016-01-22T13:53:14.570Z,71
2016-01-22T13:54:14.561Z,71
2016-01-22T13:55:14.596Z,72
2016-01-22T13:56:14.866Z,72
2016-01-22T13:57:15.185Z,72
2016-01-22T13:58:15.486Z,72
2016-01-22T13:59:15.754Z,72
2016-01-22T14:00:16.041Z,72
2016-01-22T14:01:16.341Z,72
2016-01-22T14:02:18.127Z,72
2016-01-22T14:03:19.053Z,72
2016-01-22T14:04:18.667Z,71
2016-01-22T14:05:18.827Z,71
2016-01-22T14:06:18.736Z,71
2016-01-22T14:07:18.756Z,71
2016-01-22T14:08:18.763Z,71
2016-01-22T14:09:18.799Z,71
2016-01-22T14:10:18.863Z,71
2016-01-22T14:11:18.898Z,72
2016-01-22T14:12:20.664Z,71
2016-01-22T14:13:20.698Z,71
2016-01-22T14:14:20.717Z,71
2016-01-22T14:15:20.740Z,71
2016-01-22T14:16:20.758Z,71
2016-01-22T14:17:20.808Z,71
2016-01-22T14:18:20.813Z,71
2016-01-22T14:19:20.833Z,71
2016-01-22T14:20:20.867Z,72
2016-01-22T14:21:21.199Z,72
2016-01-22T14:22:22.955Z,71
2016-01-22T14:23:22.981Z,71
2016-01-22T14:24:23.000Z,71
2016-01-22T14:25:23.037Z,71
2016-01-22T14:26:23.056Z,71
2016-01-22T14:27:23.075Z,71
2016-01-22T14:28:23.110Z,72
2016-01-22T14:29:23.397Z,72
2016-01-22T14:30:23.666Z,72
2016-01-22T14:31:23.999Z,72
2016-01-22T14:32:25.771Z,72
2016-01-22T14:33:26.042Z,72
2016-01-22T14:34:26.345Z,72
2016-01-22T14:35:26.630Z,72
2016-01-22T14:36:26.915Z,72
2016-01-22T14:37:27.171Z,72
2016-01-22T14:38:27.472Z,72
2016-01-22T14:39:27.759Z,72
2016-01-22T14:40:28.028Z,72
2016-01-22T14:41:28.907Z,72
2016-01-22T14:42:30.381Z,72
2016-01-22T14:43:30.947Z,72